sensor_id;sensor_type;location;lat;lon;timestamp;temperature;humidity
23568;DHT22;11962;50.838;4.430;2023-01-09T00:00:40;8.70;99.90
23568;DHT22;11962;50.838;4.430;2023-01-09T00:03:06;8.60;99.90
23568;DHT22;11962;50.838;4.430;2023-01-09T00:05:32;8.70;99.90
23568;DHT22;11962;50.838;4.430;2023-01-09T00:07:57;8.60;99.90
23568;DHT22;11962;50.838;4.430;2023-01-09T00:10:23;8.60;99.90
23568;DHT22;11962;50.838;4.430;2023-01-09T00:12:49;8.60;99.90
23568;DHT22;11962;50.838;4.430;2023-01-09T00:15:15;8.50;99.90
23568;DHT22;11962;50.838;4.430;2023-01-09T00:17:41;8.50;99.90
23568;DHT22;11962;50.838;4.430;2023-01-09T00:20:07;8.40;99.90
23568;DHT22;11962;50.838;4.430;2023-01-09T00:22:35;8.40;99.90
23568;DHT22;11962;50.838;4.430;2023-01-09T00:25:01;8.40;99.90
23568;DHT22;11962;50.838;4.430;2023-01-09T00:27:30;8.40;99.90
23568;DHT22;11962;50.838;4.430;2023-01-09T00:29:57;8.40;99.90
23568;DHT22;11962;50.838;4.430;2023-01-09T00:32:23;8.40;99.90
23568;DHT22;11962;50.838;4.430;2023-01-09T00:34:49;8.40;99.90
23568;DHT22;11962;50.838;4.430;2023-01-09T00:37:15;8.30;99.90
23568;DHT22;11962;50.838;4.430;2023-01-09T00:39:41;8.30;99.90
23568;DHT22;11962;50.838;4.430;2023-01-09T00:42:10;8.30;99.90
23568;DHT22;11962;50.838;4.430;2023-01-09T00:44:40;8.30;99.90
23568;DHT22;11962;50.838;4.430;2023-01-09T00:47:13;8.30;99.90
23568;DHT22;11962;50.838;4.430;2023-01-09T00:49:40;8.30;99.90
23568;DHT22;11962;50.838;4.430;2023-01-09T00:52:08;8.20;99.90
23568;DHT22;11962;50.838;4.430;2023-01-09T00:54:37;8.20;99.90
23568;DHT22;11962;50.838;4.430;2023-01-09T00:57:03;8.20;99.90
23568;DHT22;11962;50.838;4.430;2023-01-09T00:59:29;8.10;99.90
23568;DHT22;11962;50.838;4.430;2023-01-09T01:01:55;8.10;99.90
23568;DHT22;11962;50.838;4.430;2023-01-09T01:04:20;8.10;99.90
23568;DHT22;11962;50.838;4.430;2023-01-09T01:07:04;8.00;99.90
23568;DHT22;11962;50.838;4.430;2023-01-09T01:09:48;8.00;99.90
23568;DHT22;11962;50.838;4.430;2023-01-09T01:12:14;8.00;99.90
23568;DHT22;11962;50.838;4.430;2023-01-09T01:14:40;8.00;99.90
23568;DHT22;11962;50.838;4.430;2023-01-09T01:17:43;8.00;99.90
23568;DHT22;11962;50.838;4.430;2023-01-09T01:20:12;8.00;99.90
23568;DHT22;11962;50.838;4.430;2023-01-09T01:22:38;8.00;99.90
23568;DHT22;11962;50.838;4.430;2023-01-09T01:25:07;7.90;99.90
23568;DHT22;11962;50.838;4.430;2023-01-09T01:27:32;7.90;99.90
23568;DHT22;11962;50.838;4.430;2023-01-09T01:30:25;7.90;99.90
23568;DHT22;11962;50.838;4.430;2023-01-09T01:32:52;7.90;99.90
23568;DHT22;11962;50.838;4.430;2023-01-09T01:35:18;7.90;99.90
23568;DHT22;11962;50.838;4.430;2023-01-09T01:37:43;7.90;99.90
23568;DHT22;11962;50.838;4.430;2023-01-09T01:40:10;8.00;99.90
23568;DHT22;11962;50.838;4.430;2023-01-09T01:42:36;7.90;99.90
23568;DHT22;11962;50.838;4.430;2023-01-09T01:50:40;7.80;99.90
23568;DHT22;11962;50.838;4.430;2023-01-09T01:58:16;7.70;99.90
23568;DHT22;11962;50.838;4.430;2023-01-09T02:00:44;7.70;99.90
23568;DHT22;11962;50.838;4.430;2023-01-09T02:03:14;7.70;99.90
23568;DHT22;11962;50.838;4.430;2023-01-09T02:05:42;7.70;99.90
23568;DHT22;11962;50.838;4.430;2023-01-09T02:08:09;7.70;99.90
23568;DHT22;11962;50.838;4.430;2023-01-09T02:10:36;7.70;99.90
23568;DHT22;11962;50.838;4.430;2023-01-09T02:13:04;7.80;99.90
23568;DHT22;11962;50.838;4.430;2023-01-09T02:24:08;8.20;99.90
23568;DHT22;11962;50.838;4.430;2023-01-09T02:26:58;8.20;99.90
23568;DHT22;11962;50.838;4.430;2023-01-09T02:29:43;8.30;99.90
23568;DHT22;11962;50.838;4.430;2023-01-09T02:33:08;8.40;99.90
23568;DHT22;11962;50.838;4.430;2023-01-09T02:40:52;8.50;99.90
23568;DHT22;11962;50.838;4.430;2023-01-09T02:43:21;8.60;99.90
23568;DHT22;11962;50.838;4.430;2023-01-09T02:45:47;8.60;99.90
23568;DHT22;11962;50.838;4.430;2023-01-09T02:48:13;8.60;99.90
23568;DHT22;11962;50.838;4.430;2023-01-09T02:59:12;8.70;99.90
23568;DHT22;11962;50.838;4.430;2023-01-09T03:09:36;8.80;99.90
23568;DHT22;11962;50.838;4.430;2023-01-09T03:12:12;8.90;99.90
23568;DHT22;11962;50.838;4.430;2023-01-09T03:14:42;8.80;99.90
23568;DHT22;11962;50.838;4.430;2023-01-09T03:17:11;8.80;99.90
23568;DHT22;11962;50.838;4.430;2023-01-09T03:19:39;8.80;99.90
23568;DHT22;11962;50.838;4.430;2023-01-09T03:22:06;8.80;99.90
23568;DHT22;11962;50.838;4.430;2023-01-09T03:24:32;8.80;99.90
23568;DHT22;11962;50.838;4.430;2023-01-09T03:26:58;8.70;99.90
23568;DHT22;11962;50.838;4.430;2023-01-09T03:29:24;8.70;99.90
23568;DHT22;11962;50.838;4.430;2023-01-09T03:38:18;8.60;99.90
23568;DHT22;11962;50.838;4.430;2023-01-09T03:40:44;8.60;99.90
23568;DHT22;11962;50.838;4.430;2023-01-09T03:43:09;8.70;99.90
23568;DHT22;11962;50.838;4.430;2023-01-09T03:45:35;8.60;99.90
23568;DHT22;11962;50.838;4.430;2023-01-09T03:48:01;8.60;99.90
23568;DHT22;11962;50.838;4.430;2023-01-09T03:50:27;8.60;99.90
23568;DHT22;11962;50.838;4.430;2023-01-09T03:52:52;8.70;99.90
23568;DHT22;11962;50.838;4.430;2023-01-09T03:55:18;8.70;99.90
23568;DHT22;11962;50.838;4.430;2023-01-09T03:57:44;8.70;99.90
23568;DHT22;11962;50.838;4.430;2023-01-09T04:00:10;8.70;99.90
23568;DHT22;11962;50.838;4.430;2023-01-09T04:02:36;8.70;99.90
23568;DHT22;11962;50.838;4.430;2023-01-09T04:05:01;8.70;99.90
23568;DHT22;11962;50.838;4.430;2023-01-09T04:07:27;8.70;99.90
23568;DHT22;11962;50.838;4.430;2023-01-09T04:09:53;8.80;99.90
23568;DHT22;11962;50.838;4.430;2023-01-09T04:12:19;8.80;99.90
23568;DHT22;11962;50.838;4.430;2023-01-09T04:14:44;8.80;99.90
23568;DHT22;11962;50.838;4.430;2023-01-09T04:17:10;8.90;99.90
23568;DHT22;11962;50.838;4.430;2023-01-09T04:19:36;8.90;99.90
23568;DHT22;11962;50.838;4.430;2023-01-09T04:22:01;9.10;99.90
23568;DHT22;11962;50.838;4.430;2023-01-09T04:24:27;9.10;99.90
23568;DHT22;11962;50.838;4.430;2023-01-09T04:26:54;9.00;99.90
23568;DHT22;11962;50.838;4.430;2023-01-09T04:29:19;9.00;99.90
23568;DHT22;11962;50.838;4.430;2023-01-09T04:31:45;8.90;99.90
23568;DHT22;11962;50.838;4.430;2023-01-09T04:34:11;8.90;99.90
23568;DHT22;11962;50.838;4.430;2023-01-09T04:36:37;9.00;99.90
23568;DHT22;11962;50.838;4.430;2023-01-09T04:39:03;9.00;99.90
23568;DHT22;11962;50.838;4.430;2023-01-09T04:41:29;9.00;99.90
23568;DHT22;11962;50.838;4.430;2023-01-09T04:44:13;9.00;99.90
23568;DHT22;11962;50.838;4.430;2023-01-09T04:46:39;9.10;99.90
23568;DHT22;11962;50.838;4.430;2023-01-09T04:49:04;9.10;99.90
23568;DHT22;11962;50.838;4.430;2023-01-09T04:51:30;9.10;99.90
23568;DHT22;11962;50.838;4.430;2023-01-09T04:53:56;9.20;99.90
23568;DHT22;11962;50.838;4.430;2023-01-09T04:56:22;9.20;99.90
23568;DHT22;11962;50.838;4.430;2023-01-09T04:58:47;9.20;99.90
23568;DHT22;11962;50.838;4.430;2023-01-09T05:01:13;9.20;99.90
23568;DHT22;11962;50.838;4.430;2023-01-09T05:03:39;9.20;99.90
23568;DHT22;11962;50.838;4.430;2023-01-09T05:06:04;9.20;99.90
23568;DHT22;11962;50.838;4.430;2023-01-09T05:08:30;9.30;99.90
23568;DHT22;11962;50.838;4.430;2023-01-09T05:10:56;9.30;99.90
23568;DHT22;11962;50.838;4.430;2023-01-09T05:13:22;9.40;99.90
23568;DHT22;11962;50.838;4.430;2023-01-09T05:22:32;9.30;99.90
23568;DHT22;11962;50.838;4.430;2023-01-09T05:24:58;9.30;99.90
23568;DHT22;11962;50.838;4.430;2023-01-09T05:27:23;9.20;99.90
23568;DHT22;11962;50.838;4.430;2023-01-09T05:29:49;9.20;99.90
23568;DHT22;11962;50.838;4.430;2023-01-09T05:32:15;9.20;99.90
23568;DHT22;11962;50.838;4.430;2023-01-09T05:34:43;9.20;99.90
23568;DHT22;11962;50.838;4.430;2023-01-09T05:37:09;9.20;99.90
23568;DHT22;11962;50.838;4.430;2023-01-09T05:39:35;9.20;99.90
23568;DHT22;11962;50.838;4.430;2023-01-09T05:42:01;9.10;99.90
23568;DHT22;11962;50.838;4.430;2023-01-09T05:44:26;9.20;99.90
23568;DHT22;11962;50.838;4.430;2023-01-09T05:46:52;9.20;99.90
23568;DHT22;11962;50.838;4.430;2023-01-09T05:49:18;9.10;99.90
23568;DHT22;11962;50.838;4.430;2023-01-09T05:51:43;9.10;99.90
23568;DHT22;11962;50.838;4.430;2023-01-09T05:54:09;9.10;99.90
23568;DHT22;11962;50.838;4.430;2023-01-09T05:56:35;9.20;99.90
23568;DHT22;11962;50.838;4.430;2023-01-09T05:59:00;9.10;99.90
23568;DHT22;11962;50.838;4.430;2023-01-09T06:01:26;9.20;99.90
23568;DHT22;11962;50.838;4.430;2023-01-09T06:04:23;9.30;99.90
23568;DHT22;11962;50.838;4.430;2023-01-09T06:06:49;9.30;99.90
23568;DHT22;11962;50.838;4.430;2023-01-09T06:09:14;9.40;99.90
23568;DHT22;11962;50.838;4.430;2023-01-09T06:11:40;9.40;99.90
23568;DHT22;11962;50.838;4.430;2023-01-09T06:14:06;9.30;99.90
23568;DHT22;11962;50.838;4.430;2023-01-09T06:16:32;9.40;99.90
23568;DHT22;11962;50.838;4.430;2023-01-09T06:18:57;9.40;99.90
23568;DHT22;11962;50.838;4.430;2023-01-09T06:21:23;9.40;99.90
23568;DHT22;11962;50.838;4.430;2023-01-09T06:24:09;9.40;99.90
23568;DHT22;11962;50.838;4.430;2023-01-09T06:26:35;9.50;99.90
23568;DHT22;11962;50.838;4.430;2023-01-09T06:29:01;9.50;99.90
23568;DHT22;11962;50.838;4.430;2023-01-09T06:31:26;9.50;99.90
23568;DHT22;11962;50.838;4.430;2023-01-09T06:33:53;9.60;99.90
23568;DHT22;11962;50.838;4.430;2023-01-09T06:36:19;9.60;99.90
23568;DHT22;11962;50.838;4.430;2023-01-09T06:38:44;9.60;99.90
23568;DHT22;11962;50.838;4.430;2023-01-09T06:41:10;9.60;99.90
23568;DHT22;11962;50.838;4.430;2023-01-09T06:43:36;9.50;99.90
23568;DHT22;11962;50.838;4.430;2023-01-09T06:46:02;9.60;99.90
23568;DHT22;11962;50.838;4.430;2023-01-09T06:48:30;9.60;99.90
23568;DHT22;11962;50.838;4.430;2023-01-09T06:50:56;9.60;99.90
23568;DHT22;11962;50.838;4.430;2023-01-09T06:53:22;9.60;99.90
23568;DHT22;11962;50.838;4.430;2023-01-09T06:55:48;9.60;99.90
23568;DHT22;11962;50.838;4.430;2023-01-09T06:58:14;9.60;99.90
23568;DHT22;11962;50.838;4.430;2023-01-09T07:00:40;9.60;99.90
23568;DHT22;11962;50.838;4.430;2023-01-09T07:03:06;9.60;99.90
23568;DHT22;11962;50.838;4.430;2023-01-09T07:05:38;9.60;99.90
23568;DHT22;11962;50.838;4.430;2023-01-09T07:08:04;9.50;99.90
23568;DHT22;11962;50.838;4.430;2023-01-09T07:10:30;9.40;99.90
23568;DHT22;11962;50.838;4.430;2023-01-09T07:12:55;9.40;99.90
23568;DHT22;11962;50.838;4.430;2023-01-09T07:15:21;9.40;99.90
23568;DHT22;11962;50.838;4.430;2023-01-09T07:17:50;9.40;99.90
23568;DHT22;11962;50.838;4.430;2023-01-09T07:20:31;9.40;99.90
23568;DHT22;11962;50.838;4.430;2023-01-09T07:22:57;9.40;99.90
23568;DHT22;11962;50.838;4.430;2023-01-09T07:25:22;9.40;99.90
23568;DHT22;11962;50.838;4.430;2023-01-09T07:27:48;9.30;99.90
23568;DHT22;11962;50.838;4.430;2023-01-09T07:30:14;9.30;99.90
23568;DHT22;11962;50.838;4.430;2023-01-09T07:32:40;9.30;99.90
23568;DHT22;11962;50.838;4.430;2023-01-09T07:35:08;9.40;99.90
23568;DHT22;11962;50.838;4.430;2023-01-09T07:37:34;9.40;99.90
23568;DHT22;11962;50.838;4.430;2023-01-09T07:40:00;9.40;99.90
23568;DHT22;11962;50.838;4.430;2023-01-09T07:42:26;9.40;99.90
23568;DHT22;11962;50.838;4.430;2023-01-09T07:44:51;9.40;99.90
23568;DHT22;11962;50.838;4.430;2023-01-09T07:47:17;9.40;99.90
23568;DHT22;11962;50.838;4.430;2023-01-09T07:49:43;9.50;99.90
23568;DHT22;11962;50.838;4.430;2023-01-09T07:52:09;9.40;99.90
23568;DHT22;11962;50.838;4.430;2023-01-09T07:54:34;9.40;99.90
23568;DHT22;11962;50.838;4.430;2023-01-09T07:57:00;9.50;99.90
23568;DHT22;11962;50.838;4.430;2023-01-09T07:59:26;9.40;99.90
23568;DHT22;11962;50.838;4.430;2023-01-09T08:01:54;9.40;99.90
23568;DHT22;11962;50.838;4.430;2023-01-09T08:04:20;9.40;99.90
23568;DHT22;11962;50.838;4.430;2023-01-09T08:06:46;9.30;99.90
23568;DHT22;11962;50.838;4.430;2023-01-09T08:09:12;9.30;99.90
23568;DHT22;11962;50.838;4.430;2023-01-09T08:11:39;9.30;99.90
23568;DHT22;11962;50.838;4.430;2023-01-09T08:14:05;9.40;99.90
23568;DHT22;11962;50.838;4.430;2023-01-09T08:16:31;9.40;99.90
23568;DHT22;11962;50.838;4.430;2023-01-09T08:19:09;9.40;99.90
23568;DHT22;11962;50.838;4.430;2023-01-09T08:21:37;9.40;99.90
23568;DHT22;11962;50.838;4.430;2023-01-09T08:24:02;9.40;99.90
23568;DHT22;11962;50.838;4.430;2023-01-09T08:26:28;9.40;99.90
23568;DHT22;11962;50.838;4.430;2023-01-09T08:28:54;9.40;99.90
23568;DHT22;11962;50.838;4.430;2023-01-09T08:31:19;9.40;99.90
23568;DHT22;11962;50.838;4.430;2023-01-09T08:33:45;9.40;99.90
23568;DHT22;11962;50.838;4.430;2023-01-09T08:36:39;9.40;99.90
23568;DHT22;11962;50.838;4.430;2023-01-09T08:39:11;9.40;99.90
23568;DHT22;11962;50.838;4.430;2023-01-09T08:41:36;9.50;99.90
23568;DHT22;11962;50.838;4.430;2023-01-09T08:44:21;9.50;99.90
23568;DHT22;11962;50.838;4.430;2023-01-09T08:47:08;9.50;99.90
23568;DHT22;11962;50.838;4.430;2023-01-09T08:49:49;9.50;99.90
23568;DHT22;11962;50.838;4.430;2023-01-09T08:52:15;9.50;99.90
23568;DHT22;11962;50.838;4.430;2023-01-09T08:54:40;9.50;99.90
23568;DHT22;11962;50.838;4.430;2023-01-09T08:57:07;9.60;99.90
23568;DHT22;11962;50.838;4.430;2023-01-09T08:59:33;9.60;99.90
23568;DHT22;11962;50.838;4.430;2023-01-09T09:01:59;9.50;99.90
23568;DHT22;11962;50.838;4.430;2023-01-09T09:07:28;9.40;99.90
23568;DHT22;11962;50.838;4.430;2023-01-09T09:09:55;9.50;99.90
23568;DHT22;11962;50.838;4.430;2023-01-09T09:12:21;9.50;99.90
23568;DHT22;11962;50.838;4.430;2023-01-09T09:14:47;9.40;99.90
23568;DHT22;11962;50.838;4.430;2023-01-09T09:17:31;9.40;99.90
23568;DHT22;11962;50.838;4.430;2023-01-09T09:20:18;9.40;99.90
23568;DHT22;11962;50.838;4.430;2023-01-09T09:22:45;9.40;99.90
23568;DHT22;11962;50.838;4.430;2023-01-09T09:25:11;9.50;99.90
23568;DHT22;11962;50.838;4.430;2023-01-09T09:27:37;9.40;99.90
23568;DHT22;11962;50.838;4.430;2023-01-09T09:30:03;9.40;99.90
23568;DHT22;11962;50.838;4.430;2023-01-09T09:32:30;9.50;99.90
23568;DHT22;11962;50.838;4.430;2023-01-09T09:38:10;9.40;99.90
23568;DHT22;11962;50.838;4.430;2023-01-09T09:46:22;9.50;99.90
23568;DHT22;11962;50.838;4.430;2023-01-09T09:49:00;9.50;99.90
23568;DHT22;11962;50.838;4.430;2023-01-09T09:54:36;9.60;99.90
23568;DHT22;11962;50.838;4.430;2023-01-09T09:57:04;9.60;99.90
23568;DHT22;11962;50.838;4.430;2023-01-09T09:59:35;9.40;99.90
23568;DHT22;11962;50.838;4.430;2023-01-09T10:02:19;9.40;99.90
23568;DHT22;11962;50.838;4.430;2023-01-09T10:04:50;9.40;99.90
23568;DHT22;11962;50.838;4.430;2023-01-09T10:07:22;9.50;99.90
23568;DHT22;11962;50.838;4.430;2023-01-09T10:09:52;9.60;99.90
23568;DHT22;11962;50.838;4.430;2023-01-09T10:14:44;9.70;99.90
23568;DHT22;11962;50.838;4.430;2023-01-09T10:17:33;9.80;99.90
23568;DHT22;11962;50.838;4.430;2023-01-09T10:30:44;9.80;99.90
23568;DHT22;11962;50.838;4.430;2023-01-09T10:38:43;9.90;99.90
23568;DHT22;11962;50.838;4.430;2023-01-09T10:41:33;9.90;99.90
23568;DHT22;11962;50.838;4.430;2023-01-09T10:44:15;9.90;99.90
23568;DHT22;11962;50.838;4.430;2023-01-09T10:46:55;9.90;99.90
23568;DHT22;11962;50.838;4.430;2023-01-09T10:49:23;9.90;99.90
23568;DHT22;11962;50.838;4.430;2023-01-09T10:52:17;9.90;99.90
23568;DHT22;11962;50.838;4.430;2023-01-09T10:54:55;9.90;99.90
23568;DHT22;11962;50.838;4.430;2023-01-09T10:57:27;9.90;99.90
23568;DHT22;11962;50.838;4.430;2023-01-09T10:59:56;9.90;99.90
23568;DHT22;11962;50.838;4.430;2023-01-09T11:02:28;9.80;99.90
23568;DHT22;11962;50.838;4.430;2023-01-09T11:04:54;9.80;99.90
23568;DHT22;11962;50.838;4.430;2023-01-09T11:07:23;9.80;99.90
23568;DHT22;11962;50.838;4.430;2023-01-09T11:12:28;9.90;99.90
23568;DHT22;11962;50.838;4.430;2023-01-09T11:14:54;9.90;99.90
23568;DHT22;11962;50.838;4.430;2023-01-09T11:17:24;9.90;99.90
23568;DHT22;11962;50.838;4.430;2023-01-09T11:20:15;9.80;99.90
23568;DHT22;11962;50.838;4.430;2023-01-09T11:22:49;9.90;99.90
23568;DHT22;11962;50.838;4.430;2023-01-09T11:25:17;9.80;99.90
23568;DHT22;11962;50.838;4.430;2023-01-09T11:28:02;9.80;99.90
23568;DHT22;11962;50.838;4.430;2023-01-09T11:30:29;9.70;99.90
23568;DHT22;11962;50.838;4.430;2023-01-09T11:32:56;9.60;99.90
23568;DHT22;11962;50.838;4.430;2023-01-09T11:38:13;9.70;99.90
23568;DHT22;11962;50.838;4.430;2023-01-09T11:40:49;9.70;99.90
23568;DHT22;11962;50.838;4.430;2023-01-09T11:43:36;9.70;99.90
23568;DHT22;11962;50.838;4.430;2023-01-09T11:46:05;9.80;99.90
23568;DHT22;11962;50.838;4.430;2023-01-09T11:51:05;9.80;99.90
23568;DHT22;11962;50.838;4.430;2023-01-09T11:53:56;9.80;99.90
23568;DHT22;11962;50.838;4.430;2023-01-09T11:56:23;9.80;99.90
23568;DHT22;11962;50.838;4.430;2023-01-09T11:58:49;9.80;99.90
23568;DHT22;11962;50.838;4.430;2023-01-09T12:01:41;9.90;99.90
23568;DHT22;11962;50.838;4.430;2023-01-09T12:12:17;10.20;99.90
23568;DHT22;11962;50.838;4.430;2023-01-09T12:15:06;10.30;99.90
23568;DHT22;11962;50.838;4.430;2023-01-09T12:17:46;10.30;99.90
23568;DHT22;11962;50.838;4.430;2023-01-09T12:34:02;10.70;99.90
23568;DHT22;11962;50.838;4.430;2023-01-09T12:40:02;10.80;99.90
23568;DHT22;11962;50.838;4.430;2023-01-09T12:42:51;11.10;99.90
23568;DHT22;11962;50.838;4.430;2023-01-09T12:51:06;11.20;99.90
23568;DHT22;11962;50.838;4.430;2023-01-09T12:53:54;11.30;99.90
23568;DHT22;11962;50.838;4.430;2023-01-09T12:56:28;11.30;99.90
23568;DHT22;11962;50.838;4.430;2023-01-09T12:59:03;11.20;99.90
23568;DHT22;11962;50.838;4.430;2023-01-09T13:01:40;11.30;99.90
23568;DHT22;11962;50.838;4.430;2023-01-09T13:04:29;11.40;99.90
23568;DHT22;11962;50.838;4.430;2023-01-09T13:07:04;11.50;99.90
23568;DHT22;11962;50.838;4.430;2023-01-09T13:09:42;11.60;99.90
23568;DHT22;11962;50.838;4.430;2023-01-09T13:12:20;11.70;99.90
23568;DHT22;11962;50.838;4.430;2023-01-09T13:17:50;11.90;99.90
23568;DHT22;11962;50.838;4.430;2023-01-09T13:20:27;11.80;99.90
23568;DHT22;11962;50.838;4.430;2023-01-09T13:22:54;11.70;99.90
23568;DHT22;11962;50.838;4.430;2023-01-09T13:28:00;11.60;99.90
23568;DHT22;11962;50.838;4.430;2023-01-09T13:30:45;11.70;99.90
23568;DHT22;11962;50.838;4.430;2023-01-09T13:33:32;11.70;99.90
23568;DHT22;11962;50.838;4.430;2023-01-09T13:36:00;11.80;99.90
23568;DHT22;11962;50.838;4.430;2023-01-09T13:38:37;11.80;99.90
23568;DHT22;11962;50.838;4.430;2023-01-09T13:41:13;11.80;99.90
23568;DHT22;11962;50.838;4.430;2023-01-09T13:44:03;11.70;99.90
23568;DHT22;11962;50.838;4.430;2023-01-09T13:46:42;11.60;99.90
23568;DHT22;11962;50.838;4.430;2023-01-09T13:57:32;11.30;99.90
23568;DHT22;11962;50.838;4.430;2023-01-09T14:08:20;11.20;99.90
23568;DHT22;11962;50.838;4.430;2023-01-09T14:13:29;11.10;99.90
23568;DHT22;11962;50.838;4.430;2023-01-09T14:16:21;10.90;99.90
23568;DHT22;11962;50.838;4.430;2023-01-09T14:19:07;10.70;99.90
23568;DHT22;11962;50.838;4.430;2023-01-09T14:21:54;10.70;99.90
23568;DHT22;11962;50.838;4.430;2023-01-09T14:24:28;10.60;99.90
23568;DHT22;11962;50.838;4.430;2023-01-09T14:26:57;10.60;99.90
23568;DHT22;11962;50.838;4.430;2023-01-09T14:34:51;10.50;99.90
23568;DHT22;11962;50.838;4.430;2023-01-09T14:37:18;10.50;99.90
23568;DHT22;11962;50.838;4.430;2023-01-09T14:39:46;10.60;99.90
23568;DHT22;11962;50.838;4.430;2023-01-09T14:42:19;10.50;99.90
23568;DHT22;11962;50.838;4.430;2023-01-09T14:45:06;10.50;99.90
23568;DHT22;11962;50.838;4.430;2023-01-09T14:48:00;10.40;99.90
23568;DHT22;11962;50.838;4.430;2023-01-09T14:50:46;10.30;99.90
23568;DHT22;11962;50.838;4.430;2023-01-09T14:53:38;10.30;99.90
23568;DHT22;11962;50.838;4.430;2023-01-09T14:56:04;10.20;99.90
23568;DHT22;11962;50.838;4.430;2023-01-09T14:58:33;10.20;99.90
23568;DHT22;11962;50.838;4.430;2023-01-09T15:03:40;10.20;99.90
23568;DHT22;11962;50.838;4.430;2023-01-09T15:06:22;10.20;99.90
23568;DHT22;11962;50.838;4.430;2023-01-09T15:09:27;10.20;99.90
23568;DHT22;11962;50.838;4.430;2023-01-09T15:11:58;10.10;99.90
23568;DHT22;11962;50.838;4.430;2023-01-09T15:14:30;10.10;99.90
23568;DHT22;11962;50.838;4.430;2023-01-09T15:16:58;10.00;99.90
23568;DHT22;11962;50.838;4.430;2023-01-09T15:19:24;10.00;99.90
23568;DHT22;11962;50.838;4.430;2023-01-09T15:21:58;9.90;99.90
23568;DHT22;11962;50.838;4.430;2023-01-09T15:24:40;9.90;99.90
23568;DHT22;11962;50.838;4.430;2023-01-09T15:27:11;9.80;99.90
23568;DHT22;11962;50.838;4.430;2023-01-09T15:29:37;9.80;99.90
23568;DHT22;11962;50.838;4.430;2023-01-09T15:32:34;9.80;99.90
23568;DHT22;11962;50.838;4.430;2023-01-09T15:35:00;9.80;99.90
23568;DHT22;11962;50.838;4.430;2023-01-09T15:37:33;9.80;99.90
23568;DHT22;11962;50.838;4.430;2023-01-09T15:40:01;9.80;99.90
23568;DHT22;11962;50.838;4.430;2023-01-09T15:42:29;9.70;99.90
23568;DHT22;11962;50.838;4.430;2023-01-09T15:45:33;9.70;99.90
23568;DHT22;11962;50.838;4.430;2023-01-09T15:50:48;9.70;99.90
23568;DHT22;11962;50.838;4.430;2023-01-09T15:53:25;9.80;99.90
23568;DHT22;11962;50.838;4.430;2023-01-09T15:56:25;9.80;99.90
23568;DHT22;11962;50.838;4.430;2023-01-09T15:58:59;9.80;99.90
23568;DHT22;11962;50.838;4.430;2023-01-09T16:01:31;9.70;99.90
23568;DHT22;11962;50.838;4.430;2023-01-09T16:04:13;9.60;99.90
23568;DHT22;11962;50.838;4.430;2023-01-09T16:06:49;9.60;99.90
23568;DHT22;11962;50.838;4.430;2023-01-09T16:09:18;9.50;99.90
23568;DHT22;11962;50.838;4.430;2023-01-09T16:11:51;9.50;99.90
23568;DHT22;11962;50.838;4.430;2023-01-09T16:14:23;9.50;99.90
23568;DHT22;11962;50.838;4.430;2023-01-09T16:16:53;9.60;99.90
23568;DHT22;11962;50.838;4.430;2023-01-09T16:19:52;9.50;99.90
23568;DHT22;11962;50.838;4.430;2023-01-09T16:24:52;9.50;99.90
23568;DHT22;11962;50.838;4.430;2023-01-09T16:27:32;9.60;99.90
23568;DHT22;11962;50.838;4.430;2023-01-09T16:30:05;9.60;99.90
23568;DHT22;11962;50.838;4.430;2023-01-09T16:32:45;9.70;99.90
23568;DHT22;11962;50.838;4.430;2023-01-09T16:35:17;9.60;99.90
23568;DHT22;11962;50.838;4.430;2023-01-09T16:37:43;9.60;99.90
23568;DHT22;11962;50.838;4.430;2023-01-09T16:42:58;9.70;99.90
23568;DHT22;11962;50.838;4.430;2023-01-09T16:45:45;9.80;99.90
23568;DHT22;11962;50.838;4.430;2023-01-09T16:50:38;9.70;99.90
23568;DHT22;11962;50.838;4.430;2023-01-09T16:53:31;9.70;99.90
23568;DHT22;11962;50.838;4.430;2023-01-09T16:55:58;9.70;99.90
23568;DHT22;11962;50.838;4.430;2023-01-09T16:58:26;9.70;99.90
23568;DHT22;11962;50.838;4.430;2023-01-09T17:00:53;9.60;99.90
23568;DHT22;11962;50.838;4.430;2023-01-09T17:03:21;9.60;99.90
23568;DHT22;11962;50.838;4.430;2023-01-09T17:05:55;9.60;99.90
23568;DHT22;11962;50.838;4.430;2023-01-09T17:08:33;9.60;99.90
23568;DHT22;11962;50.838;4.430;2023-01-09T17:10:59;9.50;99.90
23568;DHT22;11962;50.838;4.430;2023-01-09T17:13:25;9.50;99.90
23568;DHT22;11962;50.838;4.430;2023-01-09T17:15:52;9.50;99.90
23568;DHT22;11962;50.838;4.430;2023-01-09T17:18:21;9.50;99.90
23568;DHT22;11962;50.838;4.430;2023-01-09T17:20:49;9.50;99.90
23568;DHT22;11962;50.838;4.430;2023-01-09T17:23:15;9.50;99.90
23568;DHT22;11962;50.838;4.430;2023-01-09T17:25:42;9.50;99.90
23568;DHT22;11962;50.838;4.430;2023-01-09T17:28:27;9.50;99.90
23568;DHT22;11962;50.838;4.430;2023-01-09T17:31:09;9.50;99.90
23568;DHT22;11962;50.838;4.430;2023-01-09T17:33:37;9.50;99.90
23568;DHT22;11962;50.838;4.430;2023-01-09T17:36:27;9.50;99.90
23568;DHT22;11962;50.838;4.430;2023-01-09T17:38:52;9.40;99.90
23568;DHT22;11962;50.838;4.430;2023-01-09T17:41:24;9.40;99.90
23568;DHT22;11962;50.838;4.430;2023-01-09T17:43:50;9.40;99.90
23568;DHT22;11962;50.838;4.430;2023-01-09T17:46:27;9.50;99.90
23568;DHT22;11962;50.838;4.430;2023-01-09T17:48:54;9.40;99.90
23568;DHT22;11962;50.838;4.430;2023-01-09T17:51:20;9.40;99.90
23568;DHT22;11962;50.838;4.430;2023-01-09T17:53:46;9.50;99.90
23568;DHT22;11962;50.838;4.430;2023-01-09T17:56:16;9.40;99.90
23568;DHT22;11962;50.838;4.430;2023-01-09T17:58:43;9.40;99.90
23568;DHT22;11962;50.838;4.430;2023-01-09T18:01:12;9.30;99.90
23568;DHT22;11962;50.838;4.430;2023-01-09T18:03:39;9.30;99.90
23568;DHT22;11962;50.838;4.430;2023-01-09T18:06:06;9.20;99.90
23568;DHT22;11962;50.838;4.430;2023-01-09T18:08:32;9.10;99.90
23568;DHT22;11962;50.838;4.430;2023-01-09T18:11:01;9.10;99.90
23568;DHT22;11962;50.838;4.430;2023-01-09T18:13:27;9.10;99.90
23568;DHT22;11962;50.838;4.430;2023-01-09T18:15:53;9.00;99.90
23568;DHT22;11962;50.838;4.430;2023-01-09T18:18:19;9.00;99.90
23568;DHT22;11962;50.838;4.430;2023-01-09T18:20:47;8.90;99.90
23568;DHT22;11962;50.838;4.430;2023-01-09T18:23:13;8.90;99.90
23568;DHT22;11962;50.838;4.430;2023-01-09T18:29:29;9.10;99.90
23568;DHT22;11962;50.838;4.430;2023-01-09T18:31:54;9.10;99.90
23568;DHT22;11962;50.838;4.430;2023-01-09T18:34:20;9.10;99.90
23568;DHT22;11962;50.838;4.430;2023-01-09T18:36:46;9.10;99.90
23568;DHT22;11962;50.838;4.430;2023-01-09T18:39:12;9.00;99.90
23568;DHT22;11962;50.838;4.430;2023-01-09T18:44:59;9.10;99.90
23568;DHT22;11962;50.838;4.430;2023-01-09T18:47:25;9.10;99.90
23568;DHT22;11962;50.838;4.430;2023-01-09T18:49:51;9.20;99.90
23568;DHT22;11962;50.838;4.430;2023-01-09T18:52:16;9.20;99.90
23568;DHT22;11962;50.838;4.430;2023-01-09T18:54:42;9.20;99.90
23568;DHT22;11962;50.838;4.430;2023-01-09T18:57:08;9.00;99.90
23568;DHT22;11962;50.838;4.430;2023-01-09T18:59:34;8.80;99.90
23568;DHT22;11962;50.838;4.430;2023-01-09T19:01:59;8.80;99.90
23568;DHT22;11962;50.838;4.430;2023-01-09T19:04:26;8.60;99.90